sensor_id;sensor_type;location;lat;lon;timestamp;pressure;altitude;pressure_sealevel;temperature;humidity
17060;BME280;8646;49.716;9.266;2023-01-25T00:02:15;102186.22;;;3.41;86.20
17060;BME280;8646;49.716;9.266;2023-01-25T00:05:17;102178.31;;;3.47;86.08
17060;BME280;8646;49.716;9.266;2023-01-25T00:08:22;102180.31;;;3.62;85.42
17060;BME280;8646;49.716;9.266;2023-01-25T00:11:27;102180.38;;;3.65;85.14
17060;BME280;8646;49.716;9.266;2023-01-25T00:14:36;102180.31;;;3.62;85.01
17060;BME280;8646;49.716;9.266;2023-01-25T00:17:39;102179.44;;;3.63;84.76
17060;BME280;8646;49.716;9.266;2023-01-25T00:20:42;102173.16;;;3.61;84.89
17060;BME280;8646;49.716;9.266;2023-01-25T00:23:47;102170.47;;;3.61;84.82
17060;BME280;8646;49.716;9.266;2023-01-25T00:26:54;102160.59;;;3.57;84.82
17060;BME280;8646;49.716;9.266;2023-01-25T00:29:56;102158.81;;;3.59;84.94
17060;BME280;8646;49.716;9.266;2023-01-25T00:33:06;102151.56;;;3.49;85.03
17060;BME280;8646;49.716;9.266;2023-01-25T00:36:38;102157.00;;;3.55;84.96
17060;BME280;8646;49.716;9.266;2023-01-25T00:39:47;102157.00;;;3.55;85.30
17060;BME280;8646;49.716;9.266;2023-01-25T00:43:05;102153.41;;;3.53;85.29
17060;BME280;8646;49.716;9.266;2023-01-25T00:46:08;102151.53;;;3.47;85.58
17060;BME280;8646;49.716;9.266;2023-01-25T00:49:18;102153.84;;;3.24;86.41
17060;BME280;8646;49.716;9.266;2023-01-25T00:52:21;102156.41;;;3.18;86.99
17060;BME280;8646;49.716;9.266;2023-01-25T00:55:25;102160.81;;;3.15;86.99
17060;BME280;8646;49.716;9.266;2023-01-25T00:58:29;102150.97;;;3.12;87.13
17060;BME280;8646;49.716;9.266;2023-01-25T01:01:34;102160.91;;;3.21;87.17
17060;BME280;8646;49.716;9.266;2023-01-25T01:04:37;102144.03;;;3.23;86.93
17060;BME280;8646;49.716;9.266;2023-01-25T01:07:39;102147.63;;;3.27;86.58
17060;BME280;8646;49.716;9.266;2023-01-25T01:10:45;102141.31;;;3.22;87.08
17060;BME280;8646;49.716;9.266;2023-01-25T01:13:51;102138.53;;;3.14;87.31
17060;BME280;8646;49.716;9.266;2023-01-25T01:16:53;102141.22;;;3.16;87.08
17060;BME280;8646;49.716;9.266;2023-01-25T01:20:00;102146.66;;;3.22;86.94
17060;BME280;8646;49.716;9.266;2023-01-25T01:23:02;102140.50;;;3.27;86.71
17060;BME280;8646;49.716;9.266;2023-01-25T01:26:09;102133.47;;;3.32;86.47
17060;BME280;8646;49.716;9.266;2023-01-25T01:29:14;102133.50;;;3.35;86.35
17060;BME280;8646;49.716;9.266;2023-01-25T01:32:16;102129.00;;;3.31;86.57
17060;BME280;8646;49.716;9.266;2023-01-25T01:35:21;102126.31;;;3.31;86.35
17060;BME280;8646;49.716;9.266;2023-01-25T01:38:24;102130.66;;;3.26;86.68
17060;BME280;8646;49.716;9.266;2023-01-25T01:41:32;102137.81;;;3.26;86.60
17060;BME280;8646;49.716;9.266;2023-01-25T01:44:45;102142.22;;;3.22;86.90
17060;BME280;8646;49.716;9.266;2023-01-25T01:47:48;102138.59;;;3.20;87.15
17060;BME280;8646;49.716;9.266;2023-01-25T01:50:52;102133.31;;;3.23;86.85
17060;BME280;8646;49.716;9.266;2023-01-25T01:54:02;102127.91;;;3.20;86.63
17060;BME280;8646;49.716;9.266;2023-01-25T01:57:10;102131.44;;;3.19;86.83
17060;BME280;8646;49.716;9.266;2023-01-25T02:00:18;102128.66;;;3.12;87.13
17060;BME280;8646;49.716;9.266;2023-01-25T02:03:23;102129.41;;;3.03;87.34
17060;BME280;8646;49.716;9.266;2023-01-25T02:06:33;102131.16;;;2.99;87.58
17060;BME280;8646;49.716;9.266;2023-01-25T02:09:39;102123.03;;;2.95;87.56
17060;BME280;8646;49.716;9.266;2023-01-25T02:12:43;102116.88;;;2.99;87.29
17060;BME280;8646;49.716;9.266;2023-01-25T02:15:49;102102.34;;;2.85;87.42
17060;BME280;8646;49.716;9.266;2023-01-25T02:18:54;102108.84;;;2.99;87.21
17060;BME280;8646;49.716;9.266;2023-01-25T02:21:58;102108.84;;;3.00;87.10
17060;BME280;8646;49.716;9.266;2023-01-25T02:25:10;102106.94;;;2.93;87.43
17060;BME280;8646;49.716;9.266;2023-01-25T02:28:17;102118.34;;;2.82;88.01
17060;BME280;8646;49.716;9.266;2023-01-25T02:31:23;102118.34;;;2.82;87.90
17060;BME280;8646;49.716;9.266;2023-01-25T02:34:26;102125.47;;;2.81;88.09
17060;BME280;8646;49.716;9.266;2023-01-25T02:37:29;102124.50;;;2.78;87.90
17060;BME280;8646;49.716;9.266;2023-01-25T02:40:37;102120.03;;;2.77;88.15
17060;BME280;8646;49.716;9.266;2023-01-25T02:43:42;102115.63;;;2.79;88.10
17060;BME280;8646;49.716;9.266;2023-01-25T02:46:45;102110.41;;;2.86;87.77
17060;BME280;8646;49.716;9.266;2023-01-25T02:49:48;102115.03;;;2.96;87.37
17060;BME280;8646;49.716;9.266;2023-01-25T02:52:53;102106.06;;;2.91;87.51
17060;BME280;8646;49.716;9.266;2023-01-25T02:56:00;102115.78;;;2.88;87.91
17060;BME280;8646;49.716;9.266;2023-01-25T02:59:03;102110.44;;;2.88;87.94
17060;BME280;8646;49.716;9.266;2023-01-25T03:02:06;102106.03;;;2.93;87.77
17060;BME280;8646;49.716;9.266;2023-01-25T03:05:09;102093.66;;;2.98;87.62
17060;BME280;8646;49.716;9.266;2023-01-25T03:08:12;102102.56;;;2.97;87.94
17060;BME280;8646;49.716;9.266;2023-01-25T03:11:16;102111.31;;;2.87;87.82
17060;BME280;8646;49.716;9.266;2023-01-25T03:14:19;102101.41;;;2.81;88.21
17060;BME280;8646;49.716;9.266;2023-01-25T03:17:22;102091.03;;;2.99;87.38
17060;BME280;8646;49.716;9.266;2023-01-25T03:20:32;102091.22;;;3.13;86.55
17060;BME280;8646;49.716;9.266;2023-01-25T03:23:35;102086.81;;;3.15;86.46
17060;BME280;8646;49.716;9.266;2023-01-25T03:26:39;102082.13;;;3.02;86.29
17060;BME280;8646;49.716;9.266;2023-01-25T03:29:56;102086.63;;;3.04;86.34
17060;BME280;8646;49.716;9.266;2023-01-25T03:32:58;102080.28;;;2.96;86.49
17060;BME280;8646;49.716;9.266;2023-01-25T03:36:03;102075.72;;;2.91;86.77
17060;BME280;8646;49.716;9.266;2023-01-25T03:39:06;102080.22;;;2.95;86.86
17060;BME280;8646;49.716;9.266;2023-01-25T03:42:11;102081.72;;;2.78;87.89
17060;BME280;8646;49.716;9.266;2023-01-25T03:45:13;102080.13;;;2.87;87.44
17060;BME280;8646;49.716;9.266;2023-01-25T03:48:16;102072.38;;;3.04;86.54
17060;BME280;8646;49.716;9.266;2023-01-25T03:51:19;102082.88;;;2.93;86.96
17060;BME280;8646;49.716;9.266;2023-01-25T03:54:21;102086.22;;;2.79;87.52
17060;BME280;8646;49.716;9.266;2023-01-25T03:57:26;102079.94;;;2.75;87.99
17060;BME280;8646;49.716;9.266;2023-01-25T04:00:28;102074.56;;;2.77;88.19
17060;BME280;8646;49.716;9.266;2023-01-25T04:03:32;102070.22;;;2.82;88.02
17060;BME280;8646;49.716;9.266;2023-01-25T04:06:35;102067.75;;;2.95;87.69
17060;BME280;8646;49.716;9.266;2023-01-25T04:09:38;102073.19;;;2.98;87.06
17060;BME280;8646;49.716;9.266;2023-01-25T04:12:42;102070.63;;;3.06;86.99
17060;BME280;8646;49.716;9.266;2023-01-25T04:15:45;102055.25;;;2.91;87.13
17060;BME280;8646;49.716;9.266;2023-01-25T04:18:47;102062.38;;;2.94;87.14
17060;BME280;8646;49.716;9.266;2023-01-25T04:21:50;102065.88;;;2.88;87.62
17060;BME280;8646;49.716;9.266;2023-01-25T04:24:55;102065.03;;;2.91;87.60
17060;BME280;8646;49.716;9.266;2023-01-25T04:27:59;102058.72;;;2.87;87.74
17060;BME280;8646;49.716;9.266;2023-01-25T04:31:03;102066.88;;;2.95;87.51
17060;BME280;8646;49.716;9.266;2023-01-25T04:34:06;102056.38;;;3.07;86.70
17060;BME280;8646;49.716;9.266;2023-01-25T04:37:09;102049.13;;;3.00;86.37
17060;BME280;8646;49.716;9.266;2023-01-25T04:40:12;102041.22;;;3.09;85.49
17060;BME280;8646;49.716;9.266;2023-01-25T04:43:17;102048.13;;;2.92;86.13
17060;BME280;8646;49.716;9.266;2023-01-25T04:46:19;102040.84;;;2.83;86.98
17060;BME280;8646;49.716;9.266;2023-01-25T04:49:22;102043.50;;;2.85;87.04
17060;BME280;8646;49.716;9.266;2023-01-25T04:52:25;102047.88;;;2.78;87.13
17060;BME280;8646;49.716;9.266;2023-01-25T04:55:28;102052.03;;;2.59;88.35
17060;BME280;8646;49.716;9.266;2023-01-25T04:58:35;102045.81;;;2.62;88.44
17060;BME280;8646;49.716;9.266;2023-01-25T05:01:38;102035.97;;;2.58;88.62
17060;BME280;8646;49.716;9.266;2023-01-25T05:04:41;102031.53;;;2.61;89.05
17060;BME280;8646;49.716;9.266;2023-01-25T05:07:44;102021.13;;;2.78;87.93
17060;BME280;8646;49.716;9.266;2023-01-25T05:10:46;102026.50;;;2.80;88.03
17060;BME280;8646;49.716;9.266;2023-01-25T05:13:50;102017.91;;;3.00;87.15
17060;BME280;8646;49.716;9.266;2023-01-25T05:16:55;102010.84;;;3.04;86.15
17060;BME280;8646;49.716;9.266;2023-01-25T05:19:57;102002.47;;;2.81;86.71
17060;BME280;8646;49.716;9.266;2023-01-25T05:23:00;102013.66;;;2.56;88.35
17060;BME280;8646;49.716;9.266;2023-01-25T05:26:03;102000.47;;;2.66;87.91
17060;BME280;8646;49.716;9.266;2023-01-25T05:29:26;101993.47;;;2.75;87.79
17060;BME280;8646;49.716;9.266;2023-01-25T05:32:29;101992.47;;;2.69;87.78
17060;BME280;8646;49.716;9.266;2023-01-25T05:35:31;101991.50;;;2.64;88.00
17060;BME280;8646;49.716;9.266;2023-01-25T05:38:34;101998.78;;;2.73;87.58
17060;BME280;8646;49.716;9.266;2023-01-25T05:41:37;101997.13;;;2.81;87.31
17060;BME280;8646;49.716;9.266;2023-01-25T05:44:41;101985.34;;;2.70;87.58
17060;BME280;8646;49.716;9.266;2023-01-25T05:47:51;101997.03;;;2.77;87.59
17060;BME280;8646;49.716;9.266;2023-01-25T05:50:56;101995.94;;;2.62;88.14
17060;BME280;8646;49.716;9.266;2023-01-25T05:53:59;101991.44;;;2.60;88.51
17060;BME280;8646;49.716;9.266;2023-01-25T05:57:01;102002.34;;;2.74;87.96
17060;BME280;8646;49.716;9.266;2023-01-25T06:00:07;101994.91;;;2.54;88.26
17060;BME280;8646;49.716;9.266;2023-01-25T06:03:10;101998.53;;;2.58;88.38
17060;BME280;8646;49.716;9.266;2023-01-25T06:06:13;101995.44;;;2.88;86.40
17060;BME280;8646;49.716;9.266;2023-01-25T06:09:16;101984.66;;;2.82;86.29
17060;BME280;8646;49.716;9.266;2023-01-25T06:12:19;101986.41;;;2.80;86.17
17060;BME280;8646;49.716;9.266;2023-01-25T06:15:23;101984.69;;;2.85;86.30
17060;BME280;8646;49.716;9.266;2023-01-25T06:18:29;101993.25;;;2.62;87.09
17060;BME280;8646;49.716;9.266;2023-01-25T06:21:32;101985.41;;;2.73;87.02
17060;BME280;8646;49.716;9.266;2023-01-25T06:24:35;101992.25;;;2.56;87.69
17060;BME280;8646;49.716;9.266;2023-01-25T06:27:38;101987.88;;;2.59;87.85
17060;BME280;8646;49.716;9.266;2023-01-25T06:30:42;101983.66;;;2.74;87.33
17060;BME280;8646;49.716;9.266;2023-01-25T06:33:47;101974.72;;;2.73;86.85
17060;BME280;8646;49.716;9.266;2023-01-25T06:36:50;101977.41;;;2.76;86.67
17060;BME280;8646;49.716;9.266;2023-01-25T06:39:55;101977.53;;;2.82;86.53
17060;BME280;8646;49.716;9.266;2023-01-25T06:43:09;101976.38;;;2.65;87.12
17060;BME280;8646;49.716;9.266;2023-01-25T06:46:13;101980.56;;;2.49;88.34
17060;BME280;8646;49.716;9.266;2023-01-25T06:49:16;101982.56;;;2.62;87.71
17060;BME280;8646;49.716;9.266;2023-01-25T06:52:18;101977.13;;;2.56;88.29
17060;BME280;8646;49.716;9.266;2023-01-25T06:55:21;101987.88;;;2.61;88.11
17060;BME280;8646;49.716;9.266;2023-01-25T06:58:28;101983.59;;;2.71;88.01
17060;BME280;8646;49.716;9.266;2023-01-25T07:01:32;101981.75;;;2.68;88.11
17060;BME280;8646;49.716;9.266;2023-01-25T07:04:35;101982.63;;;2.65;88.05
17060;BME280;8646;49.716;9.266;2023-01-25T07:07:38;101986.09;;;2.61;88.52
17060;BME280;8646;49.716;9.266;2023-01-25T07:10:41;101985.34;;;2.70;88.05
17060;BME280;8646;49.716;9.266;2023-01-25T07:13:45;101982.56;;;2.62;88.20
17060;BME280;8646;49.716;9.266;2023-01-25T07:16:49;101993.25;;;2.62;88.31
17060;BME280;8646;49.716;9.266;2023-01-25T07:19:55;101990.66;;;2.65;88.55
17060;BME280;8646;49.716;9.266;2023-01-25T07:23:01;101989.03;;;2.75;87.50
17060;BME280;8646;49.716;9.266;2023-01-25T07:26:13;101991.59;;;2.71;87.75
17060;BME280;8646;49.716;9.266;2023-01-25T07:29:19;101996.94;;;2.71;87.88
17060;BME280;8646;49.716;9.266;2023-01-25T07:32:26;101985.47;;;2.78;87.79
17060;BME280;8646;49.716;9.266;2023-01-25T07:35:29;101981.13;;;2.83;87.27
17060;BME280;8646;49.716;9.266;2023-01-25T07:38:33;101986.34;;;2.77;87.41
17060;BME280;8646;49.716;9.266;2023-01-25T07:41:37;101983.66;;;2.74;87.71
17060;BME280;8646;49.716;9.266;2023-01-25T07:44:43;101981.78;;;2.69;87.95
17060;BME280;8646;49.716;9.266;2023-01-25T07:47:47;101979.97;;;2.68;87.89
17060;BME280;8646;49.716;9.266;2023-01-25T07:50:49;101971.31;;;2.83;87.59
17060;BME280;8646;49.716;9.266;2023-01-25T07:54:12;101980.34;;;2.93;86.96
17060;BME280;8646;49.716;9.266;2023-01-25T07:57:26;101977.66;;;2.90;87.09
17060;BME280;8646;49.716;9.266;2023-01-25T08:00:29;101973.16;;;2.87;87.24
17060;BME280;8646;49.716;9.266;2023-01-25T08:03:34;101968.69;;;2.88;86.86
17060;BME280;8646;49.716;9.266;2023-01-25T08:06:37;101979.31;;;2.82;87.08
17060;BME280;8646;49.716;9.266;2023-01-25T08:09:40;101964.19;;;2.84;86.46
17060;BME280;8646;49.716;9.266;2023-01-25T08:12:44;101980.25;;;2.87;86.61
17060;BME280;8646;49.716;9.266;2023-01-25T08:15:54;101972.38;;;2.96;85.90
17060;BME280;8646;49.716;9.266;2023-01-25T08:19:00;101970.50;;;2.89;86.14
17060;BME280;8646;49.716;9.266;2023-01-25T08:22:05;101972.97;;;2.77;86.77
17060;BME280;8646;49.716;9.266;2023-01-25T08:25:09;101973.88;;;2.76;86.95
17060;BME280;8646;49.716;9.266;2023-01-25T08:28:12;101979.97;;;2.68;87.23
17060;BME280;8646;49.716;9.266;2023-01-25T08:31:16;101975.56;;;2.71;87.67
17060;BME280;8646;49.716;9.266;2023-01-25T08:34:28;101970.34;;;2.80;87.28
17060;BME280;8646;49.716;9.266;2023-01-25T08:37:32;101944.22;;;2.60;87.29
17060;BME280;8646;49.716;9.266;2023-01-25T08:40:35;101969.53;;;2.85;87.33
17060;BME280;8646;49.716;9.266;2023-01-25T08:43:39;101961.53;;;2.84;87.40
17060;BME280;8646;49.716;9.266;2023-01-25T08:46:41;101963.47;;;2.95;87.00
17060;BME280;8646;49.716;9.266;2023-01-25T08:49:46;101961.69;;;2.96;86.70
17060;BME280;8646;49.716;9.266;2023-01-25T08:52:50;101952.84;;;3.00;86.41
17060;BME280;8646;49.716;9.266;2023-01-25T08:55:53;101947.31;;;2.88;87.07
17060;BME280;8646;49.716;9.266;2023-01-25T08:58:58;101937.59;;;2.94;87.21
17060;BME280;8646;49.716;9.266;2023-01-25T09:02:02;101942.16;;;3.00;86.96
17060;BME280;8646;49.716;9.266;2023-01-25T09:05:07;101940.41;;;3.05;86.96
17060;BME280;8646;49.716;9.266;2023-01-25T09:08:10;101942.31;;;3.14;86.84
17060;BME280;8646;49.716;9.266;2023-01-25T09:11:15;101933.44;;;3.18;86.27
17060;BME280;8646;49.716;9.266;2023-01-25T09:14:18;101933.47;;;3.19;86.01
17060;BME280;8646;49.716;9.266;2023-01-25T09:17:26;101928.06;;;3.15;86.06
17060;BME280;8646;49.716;9.266;2023-01-25T09:20:43;101926.25;;;3.12;85.71
17060;BME280;8646;49.716;9.266;2023-01-25T09:23:51;101919.91;;;3.05;86.01
17060;BME280;8646;49.716;9.266;2023-01-25T09:27:09;101930.53;;;2.98;86.49
17060;BME280;8646;49.716;9.266;2023-01-25T09:30:13;101932.41;;;3.06;85.93
17060;BME280;8646;49.716;9.266;2023-01-25T09:33:19;101926.25;;;3.12;85.92
17060;BME280;8646;49.716;9.266;2023-01-25T09:36:23;101928.16;;;3.22;85.87
17060;BME280;8646;49.716;9.266;2023-01-25T09:39:26;101919.47;;;3.41;84.53
17060;BME280;8646;49.716;9.266;2023-01-25T09:42:40;101921.16;;;3.35;84.61
17060;BME280;8646;49.716;9.266;2023-01-25T09:45:46;101915.00;;;3.42;84.33
17060;BME280;8646;49.716;9.266;2023-01-25T09:48:58;101927.38;;;3.31;84.58
17060;BME280;8646;49.716;9.266;2023-01-25T09:52:27;101925.59;;;3.33;83.39
17060;BME280;8646;49.716;9.266;2023-01-25T09:55:36;101922.72;;;3.15;84.81
17060;BME280;8646;49.716;9.266;2023-01-25T09:58:56;101926.31;;;3.18;85.22
17060;BME280;8646;49.716;9.266;2023-01-25T10:02:02;101925.66;;;3.37;84.05
17060;BME280;8646;49.716;9.266;2023-01-25T10:05:13;101921.06;;;3.24;83.99
17060;BME280;8646;49.716;9.266;2023-01-25T10:08:23;101923.84;;;3.35;83.78
17060;BME280;8646;49.716;9.266;2023-01-25T10:11:30;101922.84;;;3.24;84.76
17060;BME280;8646;49.716;9.266;2023-01-25T10:14:33;101920.97;;;3.18;85.34
17060;BME280;8646;49.716;9.266;2023-01-25T10:17:38;101919.25;;;3.23;85.24
17060;BME280;8646;49.716;9.266;2023-01-25T10:20:57;101910.38;;;3.27;85.21
17060;BME280;8646;49.716;9.266;2023-01-25T10:24:29;101922.94;;;3.31;85.46
17060;BME280;8646;49.716;9.266;2023-01-25T10:27:42;101899.84;;;3.39;83.99
17060;BME280;8646;49.716;9.266;2023-01-25T10:30:59;101897.94;;;3.31;84.44
17060;BME280;8646;49.716;9.266;2023-01-25T10:34:13;101892.53;;;3.26;85.02
17060;BME280;8646;49.716;9.266;2023-01-25T10:37:21;101888.97;;;3.27;85.45
17060;BME280;8646;49.716;9.266;2023-01-25T10:40:31;101882.66;;;3.21;85.93
17060;BME280;8646;49.716;9.266;2023-01-25T10:43:37;101880.00;;;3.22;86.39
17060;BME280;8646;49.716;9.266;2023-01-25T10:46:47;101876.56;;;3.35;85.54
17060;BME280;8646;49.716;9.266;2023-01-25T10:49:54;101869.47;;;3.37;85.62
17060;BME280;8646;49.716;9.266;2023-01-25T10:52:57;101859.69;;;3.42;85.27
17060;BME280;8646;49.716;9.266;2023-01-25T10:56:27;101859.84;;;3.58;84.55
17060;BME280;8646;49.716;9.266;2023-01-25T10:59:35;101846.47;;;3.58;84.32
17060;BME280;8646;49.716;9.266;2023-01-25T11:02:43;101832.31;;;3.69;83.28
17060;BME280;8646;49.716;9.266;2023-01-25T11:05:52;101835.75;;;3.58;84.50
17060;BME280;8646;49.716;9.266;2023-01-25T11:08:56;101824.22;;;3.62;84.76
17060;BME280;8646;49.716;9.266;2023-01-25T11:12:02;101828.78;;;3.72;84.11
17060;BME280;8646;49.716;9.266;2023-01-25T11:15:23;101814.47;;;3.70;84.22
17060;BME280;8646;49.716;9.266;2023-01-25T11:18:29;101802.97;;;3.83;82.75
17060;BME280;8646;49.716;9.266;2023-01-25T11:21:34;101794.97;;;3.86;82.52
17060;BME280;8646;49.716;9.266;2023-01-25T11:24:40;101790.50;;;3.85;82.63
17060;BME280;8646;49.716;9.266;2023-01-25T11:27:44;101793.97;;;3.75;82.95
17060;BME280;8646;49.716;9.266;2023-01-25T11:30:48;101797.56;;;3.77;82.73
17060;BME280;8646;49.716;9.266;2023-01-25T11:33:51;101790.44;;;3.77;82.35
17060;BME280;8646;49.716;9.266;2023-01-25T11:37:24;101780.59;;;3.75;82.28
17060;BME280;8646;49.716;9.266;2023-01-25T11:40:44;101784.09;;;3.68;82.35
17060;BME280;8646;49.716;9.266;2023-01-25T11:44:11;101769.78;;;3.63;82.99
17060;BME280;8646;49.716;9.266;2023-01-25T11:47:35;101752.75;;;3.53;82.74
17060;BME280;8646;49.716;9.266;2023-01-25T11:50:47;101760.66;;;3.42;84.07
17060;BME280;8646;49.716;9.266;2023-01-25T11:54:05;101728.50;;;3.36;84.29
17060;BME280;8646;49.716;9.266;2023-01-25T11:57:51;101749.13;;;3.50;83.99
17060;BME280;8646;49.716;9.266;2023-01-25T12:01:07;101732.38;;;3.70;84.35
17060;BME280;8646;49.716;9.266;2023-01-25T12:04:36;101720.84;;;3.80;83.64
17060;BME280;8646;49.716;9.266;2023-01-25T12:07:52;101712.84;;;3.91;83.07
17060;BME280;8646;49.716;9.266;2023-01-25T12:11:12;101703.97;;;3.95;82.82
17060;BME280;8646;49.716;9.266;2023-01-25T12:14:27;101695.91;;;3.89;83.33
17060;BME280;8646;49.716;9.266;2023-01-25T12:17:50;101691.44;;;3.88;83.28
17060;BME280;8646;49.716;9.266;2023-01-25T12:21:07;101690.63;;;4.07;82.49
17060;BME280;8646;49.716;9.266;2023-01-25T12:24:30;101687.06;;;4.05;82.43
17060;BME280;8646;49.716;9.266;2023-01-25T12:27:46;101674.56;;;4.07;81.33
17060;BME280;8646;49.716;9.266;2023-01-25T12:30:55;101674.56;;;4.07;81.53
17060;BME280;8646;49.716;9.266;2023-01-25T12:34:03;101659.34;;;4.00;82.13
17060;BME280;8646;49.716;9.266;2023-01-25T12:37:14;101651.31;;;4.06;81.90
17060;BME280;8646;49.716;9.266;2023-01-25T12:40:35;101647.72;;;4.00;82.06
17060;BME280;8646;49.716;9.266;2023-01-25T12:43:53;101638.78;;;3.99;81.95
17060;BME280;8646;49.716;9.266;2023-01-25T12:47:10;101625.47;;;4.11;81.05
17060;BME280;8646;49.716;9.266;2023-01-25T12:50:22;101627.25;;;4.11;80.69
17060;BME280;8646;49.716;9.266;2023-01-25T12:53:35;101622.66;;;3.90;81.74
17060;BME280;8646;49.716;9.266;2023-01-25T12:56:41;101598.59;;;3.95;81.48
17060;BME280;8646;49.716;9.266;2023-01-25T12:59:58;101595.94;;;4.01;81.18
17060;BME280;8646;49.716;9.266;2023-01-25T13:03:24;101595.94;;;3.95;81.42
17060;BME280;8646;49.716;9.266;2023-01-25T13:06:37;101601.25;;;3.92;81.42
17060;BME280;8646;49.716;9.266;2023-01-25T13:09:51;101601.25;;;3.87;81.77
17060;BME280;8646;49.716;9.266;2023-01-25T13:13:20;101594.06;;;3.83;82.46
17060;BME280;8646;49.716;9.266;2023-01-25T13:16:40;101588.72;;;3.80;81.96
17060;BME280;8646;49.716;9.266;2023-01-25T13:19:43;101592.28;;;3.79;82.36
17060;BME280;8646;49.716;9.266;2023-01-25T13:22:56;101585.13;;;3.76;82.58
17060;BME280;8646;49.716;9.266;2023-01-25T13:26:35;101592.28;;;3.79;82.53
17060;BME280;8646;49.716;9.266;2023-01-25T13:29:43;101588.72;;;3.80;82.93
17060;BME280;8646;49.716;9.266;2023-01-25T13:32:58;101573.56;;;3.85;82.60
17060;BME280;8646;49.716;9.266;2023-01-25T13:36:35;101575.28;;;3.75;82.88
17060;BME280;8646;49.716;9.266;2023-01-25T13:39:41;101586.03;;;3.77;83.48
17060;BME280;8646;49.716;9.266;2023-01-25T13:42:57;101571.78;;;3.87;82.66
17060;BME280;8646;49.716;9.266;2023-01-25T13:46:03;101569.97;;;3.81;83.33
17060;BME280;8646;49.716;9.266;2023-01-25T13:49:17;101558.38;;;3.82;83.24
17060;BME280;8646;49.716;9.266;2023-01-25T13:52:24;101537.78;;;3.68;83.57
17060;BME280;8646;49.716;9.266;2023-01-25T13:55:37;101549.47;;;3.91;83.37
17060;BME280;8646;49.716;9.266;2023-01-25T13:58:44;101546.84;;;3.97;83.08
17060;BME280;8646;49.716;9.266;2023-01-25T14:01:49;101537.88;;;3.98;83.03
17060;BME280;8646;49.716;9.266;2023-01-25T14:04:55;101524.53;;;3.97;82.99
17060;BME280;8646;49.716;9.266;2023-01-25T14:07:59;101521.81;;;3.98;82.79
17060;BME280;8646;49.716;9.266;2023-01-25T14:11:06;101513.81;;;3.97;82.92
17060;BME280;8646;49.716;9.266;2023-01-25T14:14:19;101512.91;;;4.02;82.80
17060;BME280;8646;49.716;9.266;2023-01-25T14:17:22;101514.72;;;4.09;82.80
17060;BME280;8646;49.716;9.266;2023-01-25T14:20:25;101507.59;;;4.17;82.51
17060;BME280;8646;49.716;9.266;2023-01-25T14:23:29;101500.47;;;4.21;81.43
17060;BME280;8646;49.716;9.266;2023-01-25T14:26:37;101498.66;;;4.12;81.85
17060;BME280;8646;49.716;9.266;2023-01-25T14:29:46;101492.41;;;4.18;81.63
17060;BME280;8646;49.716;9.266;2023-01-25T14:32:52;101473.66;;;4.19;81.38
17060;BME280;8646;49.716;9.266;2023-01-25T14:36:06;101480.78;;;4.11;80.88
17060;BME280;8646;49.716;9.266;2023-01-25T14:39:27;101480.78;;;4.02;81.71
17060;BME280;8646;49.716;9.266;2023-01-25T14:42:32;101482.53;;;4.00;82.18
17060;BME280;8646;49.716;9.266;2023-01-25T14:45:35;101476.28;;;3.94;82.27
17060;BME280;8646;49.716;9.266;2023-01-25T14:48:40;101476.28;;;4.00;82.44
17060;BME280;8646;49.716;9.266;2023-01-25T14:51:47;101471.84;;;4.00;82.15
17060;BME280;8646;49.716;9.266;2023-01-25T14:54:52;101471.81;;;3.99;82.56
17060;BME280;8646;49.716;9.266;2023-01-25T14:57:59;101481.66;;;4.01;82.45
17060;BME280;8646;49.716;9.266;2023-01-25T15:01:03;101473.63;;;4.01;82.49
17060;BME280;8646;49.716;9.266;2023-01-25T15:04:11;101470.97;;;4.04;82.34
17060;BME280;8646;49.716;9.266;2023-01-25T15:07:31;101462.91;;;4.01;81.74
17060;BME280;8646;49.716;9.266;2023-01-25T15:10:35;101464.69;;;4.02;82.20
17060;BME280;8646;49.716;9.266;2023-01-25T15:13:40;101454.00;;;4.13;80.58
17060;BME280;8646;49.716;9.266;2023-01-25T15:16:43;101457.50;;;3.83;81.35
17060;BME280;8646;49.716;9.266;2023-01-25T15:19:51;101441.44;;;3.83;80.63
17060;BME280;8646;49.716;9.266;2023-01-25T15:22:56;101447.69;;;3.73;81.19
17060;BME280;8646;49.716;9.266;2023-01-25T15:25:59;101428.91;;;3.64;81.57
17060;BME280;8646;49.716;9.266;2023-01-25T15:29:11;101443.19;;;3.75;81.23
17060;BME280;8646;49.716;9.266;2023-01-25T15:32:18;101437.88;;;3.84;80.52
17060;BME280;8646;49.716;9.266;2023-01-25T15:35:21;101428.94;;;3.77;80.13
17060;BME280;8646;49.716;9.266;2023-01-25T15:38:35;101428.88;;;3.59;81.15
17060;BME280;8646;49.716;9.266;2023-01-25T15:41:38;101428.84;;;3.52;81.85
17060;BME280;8646;49.716;9.266;2023-01-25T15:44:42;101426.19;;;3.59;81.96
17060;BME280;8646;49.716;9.266;2023-01-25T15:47:45;101425.34;;;3.71;80.54
17060;BME280;8646;49.716;9.266;2023-01-25T15:50:51;101424.44;;;3.69;80.54
17060;BME280;8646;49.716;9.266;2023-01-25T15:53:55;101428.00;;;3.62;80.73
17060;BME280;8646;49.716;9.266;2023-01-25T15:56:59;101430.63;;;3.50;81.56
17060;BME280;8646;49.716;9.266;2023-01-25T16:00:04;101430.59;;;3.43;82.35
17060;BME280;8646;49.716;9.266;2023-01-25T16:03:07;101418.16;;;3.49;82.14
17060;BME280;8646;49.716;9.266;2023-01-25T16:06:21;101430.66;;;3.53;82.43
17060;BME280;8646;49.716;9.266;2023-01-25T16:09:28;101416.38;;;3.58;82.33
17060;BME280;8646;49.716;9.266;2023-01-25T16:12:33;101421.75;;;3.60;82.50
17060;BME280;8646;49.716;9.266;2023-01-25T16:15:38;101411.06;;;3.64;82.28
17060;BME280;8646;49.716;9.266;2023-01-25T16:18:42;101409.28;;;3.71;81.78
17060;BME280;8646;49.716;9.266;2023-01-25T16:21:45;101411.09;;;3.72;82.13
17060;BME280;8646;49.716;9.266;2023-01-25T16:24:48;101404.84;;;3.80;81.27
17060;BME280;8646;49.716;9.266;2023-01-25T16:27:52;101413.75;;;3.82;81.29
17060;BME280;8646;49.716;9.266;2023-01-25T16:30:59;101411.09;;;3.78;81.12
17060;BME280;8646;49.716;9.266;2023-01-25T16:34:02;101410.22;;;3.85;80.66
17060;BME280;8646;49.716;9.266;2023-01-25T16:37:05;101403.97;;;3.80;80.29
17060;BME280;8646;49.716;9.266;2023-01-25T16:40:22;101378.03;;;3.62;80.53
17060;BME280;8646;49.716;9.266;2023-01-25T16:43:28;101394.13;;;3.76;80.32
17060;BME280;8646;49.716;9.266;2023-01-25T16:46:44;101400.38;;;3.72;80.43